createdAt,value
2018-09-11T00:01:29.326Z,6.80
2018-09-11T00:03:56.309Z,7.93
2018-09-11T00:06:22.542Z,6.53
2018-09-11T00:08:48.829Z,6.50
2018-09-11T00:11:15.816Z,6.20
2018-09-11T00:13:42.074Z,7.13
2018-09-11T00:16:08.385Z,8.73
2018-09-11T00:18:34.643Z,7.73
2018-09-11T00:21:00.932Z,6.80
2018-09-11T00:23:27.171Z,7.30
2018-09-11T00:25:53.405Z,7.00
2018-09-11T00:28:19.686Z,6.23
2018-09-11T00:30:45.945Z,6.50
2018-09-11T00:33:12.250Z,7.03
2018-09-11T00:35:38.498Z,6.33
2018-09-11T00:38:05.492Z,7.33
2018-09-11T00:40:31.766Z,7.23
2018-09-11T00:42:58.749Z,7.30
2018-09-11T00:45:25.019Z,7.50
2018-09-11T00:47:51.259Z,7.43
2018-09-11T00:50:17.520Z,7.90
2018-09-11T00:52:43.774Z,7.20
2018-09-11T00:55:10.057Z,6.83
2018-09-11T00:57:36.285Z,6.90
2018-09-11T01:00:02.566Z,7.27
2018-09-11T01:02:28.792Z,7.20
2018-09-11T01:04:55.073Z,7.43
2018-09-11T01:07:21.355Z,6.47
2018-09-11T01:09:47.657Z,7.57
2018-09-11T01:12:14.636Z,6.70
2018-09-11T01:14:40.951Z,6.63
2018-09-11T01:17:07.205Z,8.10
2018-09-11T01:19:33.447Z,7.47
2018-09-11T01:21:59.732Z,6.70
2018-09-11T01:24:26.017Z,6.87
2018-09-11T01:26:52.299Z,6.83
2018-09-11T01:31:51.421Z,7.70
2018-09-11T01:34:17.697Z,6.80
2018-09-11T01:36:43.989Z,6.53
2018-09-11T01:39:10.248Z,6.57
2018-09-11T01:41:36.488Z,8.00
2018-09-11T01:44:02.774Z,7.60
2018-09-11T01:46:29.022Z,6.50
2018-09-11T01:48:55.297Z,6.97
2018-09-11T01:51:22.287Z,7.97
2018-09-11T01:53:48.624Z,7.23
2018-09-11T01:56:14.937Z,9.67
2018-09-11T01:58:41.236Z,6.60
2018-09-11T02:01:07.525Z,7.60
2018-09-11T02:03:33.801Z,7.93
2018-09-11T02:06:00.077Z,6.87
2018-09-11T02:08:26.340Z,7.17
2018-09-11T02:10:52.579Z,8.37
2018-09-11T02:13:18.844Z,6.93
2018-09-11T02:15:45.130Z,7.07
2018-09-11T02:18:11.419Z,6.60
2018-09-11T02:20:37.660Z,8.50
2018-09-11T02:23:03.966Z,8.00
2018-09-11T02:25:30.217Z,7.20
2018-09-11T02:27:56.488Z,6.87
2018-09-11T02:30:22.729Z,8.17
2018-09-11T02:32:49.038Z,8.43
2018-09-11T02:35:15.290Z,6.90
2018-09-11T02:37:41.556Z,7.53
2018-09-11T02:40:07.828Z,7.67
2018-09-11T02:42:34.098Z,7.60
2018-09-11T02:45:01.127Z,7.00
2018-09-11T02:47:27.385Z,7.03
2018-09-11T02:49:54.404Z,9.00
2018-09-11T02:52:20.670Z,9.77
2018-09-11T02:54:47.031Z,8.60
2018-09-11T02:57:13.974Z,7.80
2018-09-11T02:59:40.225Z,10.10
2018-09-11T03:02:06.500Z,7.90
2018-09-11T03:04:33.475Z,7.60
2018-09-11T03:07:10.514Z,7.87
2018-09-11T03:09:36.757Z,9.50
2018-09-11T03:12:03.791Z,9.33
2018-09-11T03:14:30.028Z,9.30
2018-09-11T03:16:57.049Z,10.70
2018-09-11T03:19:23.297Z,7.70
2018-09-11T03:21:50.326Z,9.73
2018-09-11T03:24:16.635Z,8.33
2018-09-11T03:26:42.893Z,9.50
2018-09-11T03:29:09.172Z,10.97
2018-09-11T03:31:35.458Z,9.53
2018-09-11T03:34:01.710Z,10.37
2018-09-11T03:36:28.690Z,9.67
2018-09-11T03:38:54.961Z,9.37
2018-09-11T03:41:21.240Z,9.20
2018-09-11T03:43:47.526Z,10.27
2018-09-11T03:46:13.771Z,11.80
2018-09-11T03:48:40.826Z,10.80
2018-09-11T03:51:07.813Z,9.50
2018-09-11T03:53:34.088Z,9.70
2018-09-11T03:56:00.376Z,11.43
2018-09-11T03:58:26.654Z,11.10
2018-09-11T04:00:52.910Z,10.47
2018-09-11T04:03:19.196Z,9.73
2018-09-11T04:05:45.443Z,10.23
2018-09-11T04:08:12.448Z,10.37
2018-09-11T04:10:38.717Z,10.67
2018-09-11T04:13:04.985Z,9.17
2018-09-11T04:15:31.260Z,13.20
2018-09-11T04:17:57.501Z,10.20
2018-09-11T04:20:23.793Z,13.10
2018-09-11T04:22:50.096Z,11.73
2018-09-11T04:25:16.457Z,13.70
2018-09-11T04:27:45.233Z,10.23
2018-09-11T04:30:13.437Z,12.63
2018-09-11T04:32:39.739Z,13.30
2018-09-11T04:35:06.001Z,11.47
2018-09-11T04:37:32.333Z,10.77
2018-09-11T04:39:58.605Z,10.70
2018-09-11T04:42:25.650Z,11.53
2018-09-11T04:44:52.638Z,10.97
2018-09-11T04:47:18.977Z,14.90
2018-09-11T04:49:45.254Z,11.67
2018-09-11T04:52:11.495Z,12.00
2018-09-11T04:54:39.129Z,12.87
2018-09-11T04:57:05.417Z,12.80
2018-09-11T04:59:31.718Z,11.17
2018-09-11T05:01:58.754Z,11.50
2018-09-11T05:04:25.274Z,11.10
2018-09-11T05:06:54.820Z,14.23
2018-09-11T05:09:21.130Z,13.70
2018-09-11T05:11:47.396Z,13.03
2018-09-11T05:14:13.668Z,13.53
2018-09-11T05:16:39.954Z,11.50
2018-09-11T05:19:06.201Z,13.17
2018-09-11T05:21:33.188Z,14.40
2018-09-11T05:24:02.075Z,10.97
2018-09-11T05:26:29.225Z,12.30
2018-09-11T05:28:55.456Z,13.33
2018-09-11T05:31:21.778Z,10.63
2018-09-11T05:33:48.059Z,11.40
2018-09-11T05:36:14.673Z,12.50
2018-09-11T05:38:40.918Z,12.07
2018-09-11T05:41:07.945Z,12.57
2018-09-11T05:43:34.217Z,13.90
2018-09-11T05:46:01.570Z,10.70
2018-09-11T05:48:28.392Z,13.50
2018-09-11T05:50:56.936Z,12.93
2018-09-11T05:53:23.311Z,11.03
2018-09-11T05:55:50.996Z,13.07
2018-09-11T05:58:17.368Z,11.50
2018-09-11T06:00:44.344Z,10.50
2018-09-11T06:03:10.621Z,9.80
2018-09-11T06:05:36.918Z,14.13
2018-09-11T06:08:03.926Z,11.80
2018-09-11T06:10:30.204Z,9.63
2018-09-11T06:12:56.456Z,10.53
2018-09-11T06:15:22.741Z,7.60
2018-09-11T06:17:48.988Z,8.90
2018-09-11T06:20:15.214Z,8.93
2018-09-11T06:22:42.231Z,8.27
2018-09-11T06:25:08.509Z,11.00
2018-09-11T06:27:34.786Z,8.60
2018-09-11T06:30:01.041Z,9.43
2018-09-11T06:32:28.071Z,8.80
2018-09-11T06:34:54.312Z,9.70
2018-09-11T06:37:20.582Z,8.43
2018-09-11T06:39:47.715Z,11.60
2018-09-11T06:42:13.992Z,10.67
2018-09-11T06:44:40.265Z,8.10
2018-09-11T06:47:07.328Z,10.10
2018-09-11T06:49:33.537Z,11.50
2018-09-11T06:51:59.817Z,9.13
2018-09-11T06:54:26.060Z,11.93
2018-09-11T06:56:52.321Z,13.17
2018-09-11T06:59:18.605Z,7.40
2018-09-11T07:01:44.887Z,8.57
2018-09-11T07:04:11.914Z,9.73
2018-09-11T07:06:38.152Z,8.10
2018-09-11T07:09:04.438Z,8.13
2018-09-11T07:11:30.676Z,6.93
2018-09-11T07:13:56.946Z,4.87
2018-09-11T07:16:23.183Z,7.43
2018-09-11T07:18:49.466Z,6.70
2018-09-11T07:21:15.718Z,7.10
2018-09-11T07:23:41.961Z,5.80
2018-09-11T07:26:08.303Z,7.43
2018-09-11T07:28:34.470Z,6.00
2018-09-11T07:31:00.744Z,5.23
2018-09-11T07:33:26.985Z,5.70
2018-09-11T07:35:53.229Z,5.50
2018-09-11T07:38:19.481Z,6.00
2018-09-11T07:40:45.789Z,7.80
2018-09-11T07:43:12.041Z,6.10
2018-09-11T07:45:39.024Z,5.90
2018-09-11T07:48:05.301Z,6.40
2018-09-11T07:50:32.338Z,7.40
2018-09-11T07:52:58.724Z,7.30
2018-09-11T07:55:24.876Z,8.90
2018-09-11T07:57:51.194Z,6.97
2018-09-11T08:00:17.416Z,6.07
2018-09-11T08:02:43.672Z,8.80
2018-09-11T08:05:09.969Z,6.20
2018-09-11T08:07:36.202Z,5.93
2018-09-11T08:10:03.464Z,4.57
2018-09-11T08:12:30.750Z,4.80
2018-09-11T08:14:57.103Z,5.90
2018-09-11T08:17:24.090Z,6.17
2018-09-11T08:19:50.406Z,4.60
2018-09-11T08:22:16.613Z,4.53
2018-09-11T08:24:43.628Z,4.40
2018-09-11T08:27:09.911Z,5.33
2018-09-11T08:29:36.190Z,4.80
2018-09-11T08:32:02.481Z,4.40
2018-09-11T08:34:28.731Z,5.13
2018-09-11T08:36:54.989Z,4.70
2018-09-11T08:39:21.300Z,5.17
2018-09-11T08:41:47.543Z,8.83
2018-09-11T08:44:13.871Z,5.23
2018-09-11T08:46:40.198Z,4.50
2018-09-11T08:49:06.435Z,4.23
2018-09-11T08:51:32.705Z,5.17
2018-09-11T08:53:58.962Z,4.67
2018-09-11T08:56:25.237Z,4.33
2018-09-11T08:58:51.501Z,5.23
2018-09-11T09:01:17.785Z,4.53
2018-09-11T09:03:44.022Z,7.27
2018-09-11T09:06:10.283Z,6.13
2018-09-11T09:08:36.584Z,3.70
2018-09-11T09:11:02.862Z,4.57
2018-09-11T09:13:29.143Z,4.50
2018-09-11T09:15:55.417Z,3.60
2018-09-11T09:18:22.435Z,3.73
2018-09-11T09:20:48.687Z,3.53
2018-09-11T09:23:14.975Z,3.87
2018-09-11T09:25:41.266Z,4.20
2018-09-11T09:28:07.512Z,4.80
2018-09-11T09:30:33.787Z,4.30
2018-09-11T09:33:00.085Z,3.87
2018-09-11T09:35:26.339Z,3.50
2018-09-11T09:37:52.608Z,5.37
2018-09-11T09:40:19.989Z,3.60
2018-09-11T09:42:47.081Z,3.93
2018-09-11T09:45:14.261Z,3.80
2018-09-11T09:47:40.580Z,3.57
2018-09-11T09:50:07.040Z,5.00
2018-09-11T09:52:33.324Z,4.37
2018-09-11T09:54:59.581Z,4.00
2018-09-11T09:57:26.746Z,5.13
2018-09-11T09:59:53.106Z,3.80
2018-09-11T10:02:19.422Z,4.90
2018-09-11T10:04:45.719Z,4.20
2018-09-11T10:07:12.060Z,3.77
2018-09-11T10:09:38.323Z,4.70
2018-09-11T10:12:04.691Z,4.03
2018-09-11T10:14:31.050Z,5.80
2018-09-11T10:16:58.081Z,4.50
2018-09-11T10:19:24.381Z,3.80
2018-09-11T10:21:50.684Z,4.07
2018-09-11T10:24:16.958Z,3.57
2018-09-11T10:26:43.315Z,4.43
2018-09-11T10:29:09.589Z,3.50
2018-09-11T10:31:37.005Z,5.60
2018-09-11T10:34:03.297Z,3.40
2018-09-11T10:36:29.612Z,4.20
2018-09-11T10:38:55.884Z,4.40
2018-09-11T10:41:22.169Z,3.63
2018-09-11T10:43:48.449Z,3.47
2018-09-11T10:46:14.741Z,2.60
2018-09-11T10:48:41.028Z,5.27
2018-09-11T10:51:07.307Z,3.57
2018-09-11T10:53:33.609Z,3.40
2018-09-11T10:55:59.930Z,2.63
2018-09-11T10:58:26.248Z,2.70
2018-09-11T11:00:52.527Z,6.27
2018-09-11T11:03:18.810Z,3.50
2018-09-11T11:05:45.857Z,4.20
2018-09-11T11:08:12.849Z,5.80
2018-09-11T11:10:39.168Z,2.30
2018-09-11T11:13:05.445Z,3.23
2018-09-11T11:15:31.751Z,2.63
2018-09-11T11:17:58.064Z,3.23
2018-09-11T11:20:24.332Z,3.23
2018-09-11T11:22:50.613Z,3.20
2018-09-11T11:25:17.021Z,3.57
2018-09-11T11:27:43.274Z,4.60
2018-09-11T11:30:09.534Z,3.03
2018-09-11T11:32:35.821Z,4.17
2018-09-11T11:35:02.837Z,5.67
2018-09-11T11:37:29.320Z,2.63
2018-09-11T11:39:55.372Z,2.87
2018-09-11T11:42:21.694Z,3.50
2018-09-11T11:44:47.961Z,5.17
2018-09-11T11:47:14.269Z,3.67
2018-09-11T11:49:41.401Z,3.20
2018-09-11T11:52:07.717Z,3.20
2018-09-11T11:54:34.040Z,2.90
2018-09-11T11:57:01.763Z,2.87
2018-09-11T11:59:28.823Z,3.20
2018-09-11T12:01:55.590Z,3.00
2018-09-11T12:04:22.577Z,3.60
2018-09-11T12:06:48.861Z,3.13
2018-09-11T12:09:15.098Z,2.73
2018-09-11T12:11:42.145Z,2.70
2018-09-11T12:14:09.146Z,3.97
2018-09-11T12:16:35.415Z,2.80
2018-09-11T12:19:01.701Z,3.27
2018-09-11T12:21:27.954Z,3.33
2018-09-11T12:23:54.238Z,3.57
2018-09-11T12:26:20.592Z,3.80
2018-09-11T12:28:46.873Z,3.67
2018-09-11T12:31:13.229Z,2.70
2018-09-11T12:33:39.478Z,3.53
2018-09-11T12:36:05.760Z,3.20
2018-09-11T12:38:32.061Z,2.83
2018-09-11T12:40:58.318Z,3.53
2018-09-11T12:43:24.611Z,3.40
2018-09-11T12:45:50.993Z,4.30
2018-09-11T12:48:17.525Z,2.50
2018-09-11T12:50:43.493Z,3.40
2018-09-11T12:53:09.764Z,4.77
2018-09-11T12:55:36.023Z,3.17
2018-09-11T12:58:02.304Z,2.90
2018-09-11T13:00:28.575Z,2.57
2018-09-11T13:02:55.630Z,3.60
2018-09-11T13:05:22.633Z,2.80
2018-09-11T13:07:48.897Z,3.60
2018-09-11T13:10:15.931Z,8.70
2018-09-11T13:12:42.229Z,5.20
2018-09-11T13:15:08.533Z,5.20
2018-09-11T13:17:34.819Z,5.70
2018-09-11T13:20:01.093Z,3.67
2018-09-11T13:22:27.378Z,3.20
2018-09-11T13:24:53.630Z,2.90
2018-09-11T13:27:20.687Z,3.30
2018-09-11T13:29:47.706Z,2.63
2018-09-11T13:32:13.966Z,3.60
2018-09-11T13:34:41.007Z,3.40
2018-09-11T13:37:07.273Z,3.63
2018-09-11T13:39:33.566Z,3.67
2018-09-11T13:41:59.848Z,4.23
2018-09-11T13:44:26.102Z,3.67
2018-09-11T13:46:52.437Z,3.90
2018-09-11T13:49:18.658Z,2.83
2018-09-11T13:51:44.997Z,3.50
2018-09-11T13:54:11.233Z,3.03
2018-09-11T13:56:37.528Z,3.17
2018-09-11T13:59:03.838Z,3.40
2018-09-11T14:01:30.741Z,3.90
2018-09-11T14:03:58.716Z,3.10
2018-09-11T14:06:25.298Z,5.50
2018-09-11T14:08:51.545Z,6.70
2018-09-11T14:11:17.856Z,3.30
2018-09-11T14:13:44.160Z,3.43
2018-09-11T14:16:10.759Z,4.30
2018-09-11T14:18:37.070Z,3.43
2018-09-11T14:21:03.362Z,3.60
2018-09-11T14:23:29.664Z,4.70
2018-09-11T14:25:55.977Z,4.00
2018-09-11T14:28:22.836Z,2.80
2018-09-11T14:30:49.847Z,3.10
2018-09-11T14:33:16.120Z,3.57
2018-09-11T14:35:42.558Z,4.00
2018-09-11T14:38:09.533Z,3.90
2018-09-11T14:40:35.921Z,4.50
2018-09-11T14:43:02.210Z,3.87
2018-09-11T14:45:30.009Z,4.07
2018-09-11T14:47:56.311Z,3.70
2018-09-11T14:50:22.567Z,4.03
2018-09-11T14:52:48.857Z,3.90
2018-09-11T14:55:15.959Z,5.30
2018-09-11T14:57:42.251Z,3.90
2018-09-11T15:00:08.706Z,6.83
2018-09-11T15:02:34.969Z,3.90
2018-09-11T15:05:01.244Z,3.50
2018-09-11T15:07:27.577Z,3.70
2018-09-11T15:09:53.870Z,3.67
2018-09-11T15:12:20.354Z,2.93
2018-09-11T15:14:46.637Z,4.00
2018-09-11T15:17:13.333Z,3.80
2018-09-11T15:19:40.001Z,2.87
2018-09-11T15:22:08.541Z,3.90
2018-09-11T15:24:37.778Z,4.43
2018-09-11T15:27:04.180Z,4.27
2018-09-11T15:29:30.535Z,5.23
2018-09-11T15:31:58.281Z,4.10
2018-09-11T15:34:26.042Z,3.77
2018-09-11T15:36:53.121Z,3.43
2018-09-11T15:39:21.725Z,4.47
2018-09-11T15:41:48.912Z,4.20
2018-09-11T15:44:16.267Z,3.80
2018-09-11T15:46:43.768Z,5.90
2018-09-11T15:49:11.725Z,3.97
2018-09-11T15:51:39.183Z,3.93
2018-09-11T15:54:08.133Z,3.57
2018-09-11T15:56:35.200Z,5.17
2018-09-11T15:59:01.502Z,3.43
2018-09-11T16:01:28.435Z,3.77
2018-09-11T16:03:55.854Z,3.77
2018-09-11T16:06:22.991Z,3.40
2018-09-11T16:08:50.250Z,3.47
2018-09-11T16:11:17.405Z,4.97
2018-09-11T16:13:45.398Z,6.00
2018-09-11T16:16:13.471Z,5.63
2018-09-11T16:18:40.207Z,4.80
2018-09-11T16:21:08.640Z,5.03
2018-09-11T16:23:35.051Z,4.33
2018-09-11T16:26:01.329Z,5.40
2018-09-11T16:28:30.562Z,6.53
2018-09-11T16:30:57.774Z,7.00
2018-09-11T16:33:24.117Z,4.63
2018-09-11T16:35:50.438Z,3.87
2018-09-11T16:38:18.229Z,6.20
2018-09-11T16:40:46.105Z,5.50
2018-09-11T16:43:13.595Z,4.00
2018-09-11T16:45:40.745Z,4.13
2018-09-11T16:48:07.976Z,4.70
2018-09-11T16:50:35.869Z,7.50
2018-09-11T16:53:03.312Z,5.23
2018-09-11T16:55:32.568Z,3.07
2018-09-11T16:58:01.479Z,3.73
2018-09-11T17:00:31.335Z,3.70
2018-09-11T17:02:59.792Z,8.00
2018-09-11T17:05:26.626Z,3.90
2018-09-11T17:07:53.523Z,3.40
2018-09-11T17:10:19.973Z,3.63
2018-09-11T17:12:47.158Z,4.27
2018-09-11T17:15:14.777Z,3.50
2018-09-11T17:17:41.470Z,4.60
2018-09-11T17:20:07.835Z,3.87
2018-09-11T17:22:34.156Z,5.50
2018-09-11T17:25:00.478Z,5.50
2018-09-11T17:27:27.117Z,3.30
2018-09-11T17:29:54.325Z,5.50
2018-09-11T17:32:21.286Z,4.70
2018-09-11T17:34:48.394Z,5.23
2018-09-11T17:37:14.718Z,3.63
2018-09-11T17:39:40.997Z,3.60
2018-09-11T17:42:07.409Z,3.90
2018-09-11T17:44:34.418Z,4.60
2018-09-11T17:47:00.685Z,4.23
2018-09-11T17:49:26.936Z,5.17
2018-09-11T17:51:53.258Z,5.03
2018-09-11T17:54:19.502Z,5.00
2018-09-11T17:56:46.797Z,7.43
2018-09-11T17:59:13.171Z,4.03
2018-09-11T18:01:39.433Z,6.40
2018-09-11T18:04:05.740Z,3.70
2018-09-11T18:06:32.207Z,5.23
2018-09-11T18:08:58.518Z,4.40
2018-09-11T18:11:24.752Z,7.10
2018-09-11T18:13:51.005Z,6.23
2018-09-11T18:16:17.331Z,7.77
2018-09-11T18:18:43.609Z,5.43
2018-09-11T18:21:10.645Z,4.50
2018-09-11T18:23:36.945Z,4.80
2018-09-11T18:26:03.218Z,5.67
2018-09-11T18:28:30.233Z,7.33
2018-09-11T18:30:56.548Z,5.07
2018-09-11T18:33:22.863Z,7.50
2018-09-11T18:35:49.132Z,5.40
2018-09-11T18:38:15.410Z,6.47
2018-09-11T18:40:41.728Z,5.83
2018-09-11T18:43:08.729Z,5.00
2018-09-11T18:45:35.602Z,4.63
2018-09-11T18:48:01.851Z,5.20
2018-09-11T18:50:28.177Z,7.60
2018-09-11T18:52:55.165Z,5.87
2018-09-11T18:55:21.494Z,4.33
2018-09-11T18:57:47.948Z,9.17
2018-09-11T19:00:14.174Z,9.60
2018-09-11T19:02:40.895Z,4.63
2018-09-11T19:05:07.334Z,8.30
2018-09-11T19:07:34.452Z,6.23
2018-09-11T19:10:01.529Z,5.53
2018-09-11T19:12:27.977Z,4.07
2018-09-11T19:14:58.809Z,5.33
2018-09-11T19:17:25.566Z,5.60
2018-09-11T19:19:53.275Z,7.37
2018-09-11T19:22:22.914Z,6.23
2018-09-11T19:24:53.296Z,6.80
2018-09-11T19:27:21.374Z,5.30
2018-09-11T19:29:47.815Z,5.30
2018-09-11T19:32:15.209Z,6.23
2018-09-11T19:34:43.211Z,6.50
2018-09-11T19:37:11.707Z,4.97
2018-09-11T19:39:43.357Z,4.57
2018-09-11T19:42:10.380Z,6.23
2018-09-11T19:44:36.987Z,5.93
2018-09-11T19:47:03.741Z,6.13
2018-09-11T19:49:30.002Z,5.67
2018-09-11T19:51:56.547Z,5.97
2018-09-11T19:54:22.793Z,10.33
2018-09-11T19:56:49.114Z,5.03
2018-09-11T19:59:15.408Z,5.27
2018-09-11T20:01:41.675Z,30.47
2018-09-11T20:04:08.646Z,14.60
2018-09-11T20:06:35.679Z,8.30
2018-09-11T20:09:03.624Z,5.37
2018-09-11T20:11:29.930Z,6.93
2018-09-11T20:13:56.198Z,4.97
2018-09-11T20:16:22.505Z,4.70
2018-09-11T20:18:48.871Z,4.40
2018-09-11T20:21:15.150Z,6.07
2018-09-11T20:23:41.422Z,6.13
2018-09-11T20:26:07.696Z,5.20
2018-09-11T20:28:33.969Z,6.87
2018-09-11T20:31:00.313Z,5.07
2018-09-11T20:33:26.788Z,4.50
2018-09-11T20:35:54.961Z,5.77
2018-09-11T20:38:30.076Z,5.93
2018-09-11T20:40:56.487Z,6.37
2018-09-11T20:43:22.728Z,5.30
2018-09-11T20:45:49.017Z,4.60
2018-09-11T20:48:15.261Z,9.17
2018-09-11T20:50:41.533Z,22.53
2018-09-11T20:53:08.542Z,5.17
2018-09-11T20:55:34.838Z,8.47
2018-09-11T20:58:01.116Z,7.53
2018-09-11T21:00:27.435Z,6.30
2018-09-11T21:02:53.761Z,5.03
2018-09-11T21:05:20.066Z,8.70
2018-09-11T21:07:46.381Z,6.20
2018-09-11T21:10:13.375Z,4.70
2018-09-11T21:12:39.674Z,7.87
2018-09-11T21:15:05.957Z,5.13
2018-09-11T21:17:32.208Z,5.03
2018-09-11T21:19:58.497Z,5.47
2018-09-11T21:22:24.765Z,5.70
2018-09-11T21:24:51.017Z,6.97
2018-09-11T21:27:17.301Z,5.17
2018-09-11T21:29:43.589Z,9.37
2018-09-11T21:32:09.889Z,5.43
2018-09-11T21:34:36.129Z,4.37
2018-09-11T21:37:03.144Z,5.10
2018-09-11T21:39:29.411Z,4.60
2018-09-11T21:41:55.666Z,6.97
2018-09-11T21:44:21.969Z,5.03
2018-09-11T21:46:48.985Z,6.10
2018-09-11T21:49:15.265Z,12.23
2018-09-11T21:51:41.524Z,9.03
2018-09-11T21:54:14.662Z,6.43
2018-09-11T21:56:41.672Z,6.00
2018-09-11T21:59:07.969Z,4.80
2018-09-11T22:01:34.241Z,8.57
2018-09-11T22:04:00.524Z,7.00
2018-09-11T22:06:26.785Z,5.10
2018-09-11T22:08:53.057Z,8.07
2018-09-11T22:11:19.319Z,8.20
2018-09-11T22:13:45.613Z,6.17
2018-09-11T22:16:11.953Z,6.60
2018-09-11T22:18:38.219Z,5.20
2018-09-11T22:21:04.517Z,4.60
2018-09-11T22:23:30.773Z,7.20
2018-09-11T22:25:57.046Z,7.53
2018-09-11T22:28:23.355Z,5.97
2018-09-11T22:30:49.610Z,4.83
2018-09-11T22:33:15.878Z,5.70
2018-09-11T22:35:42.865Z,4.87
2018-09-11T22:38:09.150Z,5.13
2018-09-11T22:40:36.143Z,5.07
2018-09-11T22:43:02.471Z,7.63
2018-09-11T22:45:29.443Z,6.40
2018-09-11T22:47:55.730Z,5.67
2018-09-11T22:50:22.021Z,4.90
2018-09-11T22:52:48.307Z,5.47
2018-09-11T22:55:14.537Z,5.20
2018-09-11T22:57:40.873Z,5.23
2018-09-11T23:00:07.202Z,5.30
2018-09-11T23:02:33.466Z,6.23
2018-09-11T23:04:59.721Z,5.67
2018-09-11T23:07:25.985Z,6.07
2018-09-11T23:09:52.238Z,5.70
2018-09-11T23:12:18.522Z,7.10
2018-09-11T23:14:45.505Z,5.60
2018-09-11T23:17:11.833Z,5.87
2018-09-11T23:19:38.121Z,7.07
2018-09-11T23:22:05.164Z,6.80
2018-09-11T23:24:31.400Z,7.70
2018-09-11T23:26:58.461Z,9.27
2018-09-11T23:29:25.446Z,7.53
2018-09-11T23:31:51.761Z,7.70
2018-09-11T23:34:17.993Z,7.20
2018-09-11T23:36:44.281Z,7.20
2018-09-11T23:39:10.534Z,5.87
2018-09-11T23:41:36.840Z,6.43
2018-09-11T23:44:03.171Z,6.30
2018-09-11T23:46:29.449Z,5.67
2018-09-11T23:48:55.717Z,5.30
2018-09-11T23:51:21.964Z,5.87
2018-09-11T23:53:48.270Z,5.10
2018-09-11T23:56:14.540Z,5.60
2018-09-11T23:58:40.806Z,6.20
